Sao Lourenco do Oeste, Brazil
Current Conditions -  °F | °C
As of 4:00 PM on Monday 24 Nov 2014 (Local Time) from SBCH Reporting Station
Scattered Clouds Scattered Clouds  
Wind Chill: 88°   Ceiling: Unl
Heat Index: 93°   Visibility: 6mi
Dew Point: 70°   Wind: 12mph
Humidity: 55%   Direction: 360°N
Pressure: 29.91"   Gusts: NA
Location:  26.4°S, 52.77°W
Report Text: SBCH 241800Z 36010KT 9999 SCT035 31/21 Q1013
Loading
Personal Weather Stations






























Interactive Weather Map New forecast layout! Learn more

10-Day Weather Forecast

Advertisements
Track Severe Weather on mobile